Ridgecrest, CA (93555)

4:43 PM PST on March 03, 2015 (GMT -0800)
SW Ridgecrest | Change Station
CLOSE
Current Station
Personal Weather Station
Location: Ridgecrest, CA
Elevation: 2475 ft
Nearby Weather Stations

Elev 2475 ft 35.59 °N, 117.70 °W | Updated 9 seconds ago

Clear
Clear
58.8 °F
Feels Like 58.8 °F
N
2.0
Wind Variable Wind from ENE
Gusts 2.0 mph

Today
High -- | Low -- °F
--% Chance of Precip.
Yesterday
High -- | Low -- °F
Precip. -- in
6:18 AM 5:47 PM
Waxing Gibbous, 97% visible
Pressure 29.87 in
Visibility 10.0 miles
Clouds Few 6500 ft
Dew Point 32 °F
Humidity 37%
Rainfall 0.00 in
Snow Depth Not available.
UV 1 out of 12
Pollen 8.60 out of 12
Air Quality Not available.
Flu Activity Not available.
METAR KNID 032356Z 00000KT 10SM FEW065 15/M02 A2985 RMK AO2 SLP113 T01501017 10161 20100 56016 $

More Conditions Fewer Conditions

Pressure 29.87 in
Visibility 10.0 miles
Clouds Few 6500 ft
Dew Point 32 °F
Humidity 37%
Rainfall 0.00 in
Snow Depth Not available.
UV 1 out of 12
Pollen 8.60 out of 12
Air Quality Not available.
Flu Activity Not available.
METAR KNID 032356Z 00000KT 10SM FEW065 15/M02 A2985 RMK AO2 SLP113 T01501017 10161 20100 56016 $

More Conditions Fewer Conditions

10-Day Weather Forecast

Almanac

Astronomy

Mar. 03, 2015 Rise Set
Actual Time
Civil Twilight
Nautical Twilight
Astronomical Twilight
Moon
Length of Visible Light
Length of Day
Tomorrow will be .
, % of the Moon is Illuminated

Today's Extremes

State Highs State Lows

Community

WunderPhotos

Upload Photos

1,802,340 photos uploaded!

WunderBlogs® & News

Nearby

Air Quality

  Air Quality AQ Index Pollutant
Not available.

Snow Depth

Station Depth Elevation

Earthquake Activity

City Distance Mag. Time & Date
Minimum magnitude displayed is 2.5.

Coastal Water Temperatures

Place Temperature

Nearby Weather Stations